70°F Temp
64°F Dewpoint
% Humidity
Temperature
8 MPH
13 KM/H
7 KTS
260°
Due West

Wind Speed
Partly Cloudy
Conditions
Pressure 1014.52 (hPa) - 29.96 (in)
Visibility 10.0 (mi) - 16.1 (km)

Current Conditions
KCLE
Location 38(mi)
Metar :KCLE 041151Z 26007KT 10SM FEW014 BKN055 BKN250 21/18 A2996 RMK AO2 SLP139 60000 T02110183 10244 20206 53029
Wed 4th September 07:51 am

Airport
  Metar Aviation API Data Provided by https://www.checkwx.com/ PHP scripts by weather34.com ©2019